createdAt,value
2023-05-19T00:01:21.205Z,12.95
2023-05-19T00:06:33.219Z,13.09
2023-05-19T00:11:36.744Z,13.07
2023-05-19T00:16:39.046Z,13.11
2023-05-19T00:21:40.670Z,13.18
2023-05-19T00:26:42.235Z,12.92
2023-05-19T00:31:43.965Z,13.07
2023-05-19T00:36:45.546Z,13.04
2023-05-19T00:41:47.367Z,13.02
2023-05-19T00:46:49.002Z,13.06
2023-05-19T00:51:50.673Z,13.08
2023-05-19T00:56:53.203Z,13.08
2023-05-19T01:01:54.928Z,13.05
2023-05-19T01:06:56.873Z,13.02
2023-05-19T01:11:59.349Z,13.08
2023-05-19T01:17:09.985Z,12.94
2023-05-19T01:22:31.030Z,13.03
2023-05-19T01:27:41.378Z,12.90
2023-05-19T01:32:45.555Z,13.05
2023-05-19T01:37:47.634Z,12.99
2023-05-19T01:42:50.491Z,13.06
2023-05-19T01:47:55.661Z,13.03
2023-05-19T01:52:57.977Z,12.97
2023-05-19T01:58:14.693Z,12.97
2023-05-19T02:03:38.574Z,12.97
2023-05-19T02:09:02.184Z,12.86
2023-05-19T02:14:20.405Z,12.94
2023-05-19T02:19:29.492Z,12.86
2023-05-19T02:24:31.269Z,12.92
2023-05-19T02:29:32.909Z,12.89
2023-05-19T02:34:34.479Z,12.92
2023-05-19T02:39:36.101Z,12.84
2023-05-19T02:44:37.835Z,12.80
2023-05-19T02:49:39.899Z,12.88
2023-05-19T02:54:41.592Z,12.79
2023-05-19T02:59:43.268Z,12.87
2023-05-19T03:04:45.655Z,12.78
2023-05-19T03:09:47.331Z,12.72
2023-05-19T03:14:48.966Z,12.77
2023-05-19T03:19:51.262Z,12.94
2023-05-19T03:24:54.321Z,12.70
2023-05-19T03:29:55.957Z,12.79
2023-05-19T03:34:57.731Z,12.64
2023-05-19T03:39:59.842Z,12.68
2023-05-19T03:45:01.463Z,12.70
2023-05-19T03:50:03.201Z,12.71
2023-05-19T03:55:05.549Z,12.74
2023-05-19T04:00:08.320Z,12.79
2023-05-19T04:05:10.850Z,12.76
2023-05-19T04:10:13.546Z,12.63
2023-05-19T04:15:15.823Z,12.63
2023-05-19T04:20:17.428Z,12.61
2023-05-19T04:25:20.196Z,12.63
2023-05-19T04:30:22.691Z,12.70
2023-05-19T04:35:24.775Z,12.55
2023-05-19T04:40:26.343Z,12.49
2023-05-19T04:45:28.202Z,12.63
2023-05-19T04:50:31.154Z,12.60
2023-05-19T04:55:33.032Z,12.68
2023-05-19T05:00:35.951Z,12.67
2023-05-19T05:05:37.684Z,12.52
2023-05-19T05:10:39.273Z,12.55
2023-05-19T05:15:41.094Z,12.56
2023-05-19T05:20:43.643Z,12.67
2023-05-19T05:25:47.434Z,12.75
2023-05-19T05:30:49.380Z,12.76
2023-05-19T05:35:51.137Z,12.89
2023-05-19T05:40:52.751Z,12.75
2023-05-19T05:45:54.340Z,12.90
2023-05-19T05:50:57.955Z,12.81
2023-05-19T05:55:59.990Z,12.29
2023-05-19T06:01:02.743Z,12.66
2023-05-19T06:06:04.776Z,12.78
2023-05-19T06:11:08.917Z,12.69
2023-05-19T06:16:10.768Z,12.56
2023-05-19T06:21:13.437Z,12.47
2023-05-19T06:26:15.437Z,12.62
2023-05-19T06:31:17.086Z,12.63
2023-05-19T06:36:18.791Z,12.54
2023-05-19T06:41:21.690Z,12.64
2023-05-19T06:46:23.298Z,12.75
2023-05-19T06:51:24.968Z,12.80
2023-05-19T06:56:26.634Z,12.61
2023-05-19T07:01:30.351Z,12.99
2023-05-19T07:06:32.034Z,13.02
2023-05-19T07:11:33.592Z,13.23
2023-05-19T07:16:35.177Z,12.83
2023-05-19T07:21:36.798Z,13.15
2023-05-19T07:26:39.800Z,13.19
2023-05-19T07:31:42.797Z,13.20
2023-05-19T07:36:44.424Z,13.19
2023-05-19T07:41:52.625Z,13.05
2023-05-19T07:46:54.893Z,12.87
2023-05-19T07:51:57.075Z,13.26
2023-05-19T07:56:59.752Z,13.16
2023-05-19T08:02:01.510Z,13.26
2023-05-19T08:07:03.968Z,13.32
2023-05-19T08:12:05.968Z,13.40
2023-05-19T08:17:07.700Z,13.45
2023-05-19T08:22:09.345Z,13.39
2023-05-19T08:27:10.932Z,13.46
2023-05-19T08:32:13.492Z,13.71
2023-05-19T08:37:15.594Z,13.73
2023-05-19T08:42:17.269Z,13.74
2023-05-19T08:47:19.873Z,13.75
2023-05-19T08:52:42.011Z,14.45
2023-05-19T08:57:43.972Z,14.57
2023-05-19T09:02:59.656Z,14.76
2023-05-19T09:08:07.901Z,14.95
2023-05-19T09:13:09.620Z,15.14
2023-05-19T09:18:13.108Z,14.03
2023-05-19T09:23:16.811Z,15.34
2023-05-19T09:28:26.120Z,15.30
2023-05-19T09:33:28.696Z,14.51
2023-05-19T09:38:30.387Z,14.80
2023-05-19T09:43:36.639Z,15.60
2023-05-19T09:48:38.342Z,15.70
2023-05-19T09:53:39.963Z,14.74
2023-05-19T09:58:45.668Z,14.87
2023-05-19T10:03:47.515Z,15.14
2023-05-19T10:08:50.357Z,14.89
2023-05-19T10:13:52.296Z,15.16
2023-05-19T10:18:57.398Z,14.96
2023-05-19T10:23:59.044Z,15.96
2023-05-19T10:29:01.964Z,14.78
2023-05-19T10:34:22.330Z,15.10
2023-05-19T10:39:30.049Z,15.27
2023-05-19T10:45:05.258Z,14.74
2023-05-19T10:50:07.856Z,15.02
2023-05-19T10:55:17.817Z,15.06
2023-05-19T11:00:31.316Z,14.90
2023-05-19T11:05:36.811Z,15.05
2023-05-19T11:10:39.256Z,15.01
2023-05-19T11:15:42.954Z,15.04
2023-05-19T11:20:55.541Z,15.02
2023-05-19T11:25:57.475Z,15.12
2023-05-19T11:31:01.286Z,15.24
2023-05-19T11:36:03.106Z,15.15
2023-05-19T11:41:05.070Z,15.22
2023-05-19T11:46:06.791Z,15.26
2023-05-19T11:51:08.466Z,15.26
2023-05-19T11:56:11.772Z,15.15
2023-05-19T12:01:13.772Z,15.28
2023-05-19T12:06:17.448Z,15.30
2023-05-19T12:11:20.131Z,15.58
2023-05-19T12:16:22.310Z,15.51
2023-05-19T12:21:24.079Z,15.51
2023-05-19T12:26:37.360Z,15.71
2023-05-19T12:31:39.717Z,15.82
2023-05-19T12:36:41.635Z,15.86
2023-05-19T12:41:45.570Z,15.80
2023-05-19T12:46:51.927Z,15.99
2023-05-19T12:51:54.123Z,16.38
2023-05-19T12:56:57.755Z,16.35
2023-05-19T13:01:59.536Z,16.35
2023-05-19T13:07:01.818Z,16.28
2023-05-19T13:12:04.767Z,16.72
2023-05-19T13:17:06.503Z,16.32
2023-05-19T13:22:08.281Z,16.57
2023-05-19T13:27:10.014Z,16.66
2023-05-19T13:32:11.603Z,17.24
2023-05-19T13:37:13.265Z,16.79
2023-05-19T13:42:14.980Z,17.13
2023-05-19T13:47:16.858Z,17.09
2023-05-19T13:52:20.729Z,17.09
2023-05-19T13:57:28.319Z,17.19
2023-05-19T14:02:30.475Z,16.49
2023-05-19T14:07:34.769Z,16.97
2023-05-19T14:12:47.822Z,17.06
2023-05-19T14:17:53.780Z,16.76
2023-05-19T14:22:56.555Z,17.06
2023-05-19T14:27:58.207Z,17.17
2023-05-19T14:32:59.963Z,16.33
2023-05-19T14:38:01.660Z,16.26
2023-05-19T14:43:03.387Z,16.38
2023-05-19T14:48:05.600Z,16.27
2023-05-19T14:53:07.428Z,16.20
2023-05-19T14:58:23.715Z,16.25
2023-05-19T15:03:29.715Z,16.34
2023-05-19T15:08:31.443Z,16.28
2023-05-19T15:13:33.020Z,16.26
2023-05-19T15:18:34.629Z,16.12
2023-05-19T15:23:36.537Z,16.14
2023-05-19T15:28:38.095Z,16.13
2023-05-19T15:33:39.735Z,16.02
2023-05-19T15:38:41.281Z,16.08
2023-05-19T15:43:42.938Z,15.95
2023-05-19T15:48:44.548Z,15.90
2023-05-19T15:53:46.168Z,15.89
2023-05-19T15:58:47.889Z,15.88
2023-05-19T16:03:49.535Z,15.84
2023-05-19T16:08:51.147Z,15.83
2023-05-19T16:13:52.858Z,15.79
2023-05-19T16:18:54.482Z,15.74
2023-05-19T16:23:56.029Z,15.72
2023-05-19T16:28:57.595Z,15.70
2023-05-19T16:33:59.225Z,15.69
2023-05-19T16:39:00.902Z,15.72
2023-05-19T16:44:02.519Z,15.70
2023-05-19T16:49:04.145Z,15.74
2023-05-19T16:54:05.785Z,15.78
2023-05-19T16:59:09.244Z,15.78
2023-05-19T17:04:10.832Z,15.76
2023-05-19T17:09:12.772Z,15.74
2023-05-19T17:14:14.490Z,15.71
2023-05-19T17:19:16.383Z,15.67
2023-05-19T17:24:17.991Z,15.69
2023-05-19T17:29:19.555Z,15.65
2023-05-19T17:34:21.303Z,15.62
2023-05-19T17:39:22.950Z,15.71
2023-05-19T17:44:24.782Z,15.70
2023-05-19T17:49:26.465Z,15.62
2023-05-19T17:54:28.337Z,15.63
2023-05-19T17:59:30.668Z,15.60
2023-05-19T18:04:32.985Z,15.60
2023-05-19T18:09:38.614Z,15.51
2023-05-19T18:14:40.497Z,15.52
2023-05-19T18:19:42.516Z,15.53
2023-05-19T18:24:44.676Z,15.50
2023-05-19T18:29:47.002Z,15.47
2023-05-19T18:34:49.339Z,15.44
2023-05-19T18:39:51.637Z,15.42
2023-05-19T18:44:53.918Z,15.37
2023-05-19T18:49:56.330Z,15.35
2023-05-19T18:55:00.196Z,15.40
2023-05-19T19:00:02.732Z,15.34
2023-05-19T19:05:09.927Z,15.30
2023-05-19T19:10:12.448Z,15.33
2023-05-19T19:15:14.794Z,15.35
2023-05-19T19:20:17.224Z,15.32
2023-05-19T19:25:21.223Z,15.25
2023-05-19T19:30:26.041Z,15.21
2023-05-19T19:35:28.346Z,15.24
2023-05-19T19:40:31.002Z,15.23
2023-05-19T19:45:35.302Z,15.26
2023-05-19T19:50:37.707Z,15.23
2023-05-19T19:55:41.074Z,15.22
2023-05-19T20:00:43.379Z,15.20
2023-05-19T20:05:45.790Z,15.09
2023-05-19T20:10:49.844Z,14.96
2023-05-19T20:15:52.139Z,15.11
2023-05-19T20:20:54.472Z,15.02
2023-05-19T20:26:10.707Z,15.10
2023-05-19T20:31:15.175Z,15.11
2023-05-19T20:36:17.417Z,15.04
2023-05-19T20:41:19.957Z,15.06
2023-05-19T20:46:22.545Z,15.05
2023-05-19T20:51:25.761Z,15.07
2023-05-19T20:56:27.746Z,15.06
2023-05-19T21:01:30.047Z,15.03
2023-05-19T21:06:31.839Z,14.97
2023-05-19T21:11:34.245Z,14.96
2023-05-19T21:16:38.841Z,14.80
2023-05-19T21:21:42.852Z,14.84
2023-05-19T21:26:44.459Z,14.87
2023-05-19T21:31:46.074Z,14.90
2023-05-19T21:36:48.181Z,14.99
2023-05-19T21:41:51.484Z,14.74
2023-05-19T21:46:53.200Z,14.85
2023-05-19T21:51:54.934Z,14.54
2023-05-19T21:56:56.596Z,14.77
2023-05-19T22:01:58.656Z,14.83
2023-05-19T22:07:00.561Z,14.91
2023-05-19T22:18:27.615Z,14.86
2023-05-19T22:23:29.159Z,14.89
2023-05-19T22:28:30.674Z,14.84
2023-05-19T22:33:33.217Z,14.76
2023-05-19T22:38:34.689Z,14.77
2023-05-19T22:43:36.170Z,14.70
2023-05-19T22:48:37.680Z,14.39
2023-05-19T22:53:39.309Z,14.63
2023-05-19T22:58:40.848Z,14.58
2023-05-19T23:03:43.220Z,14.18
2023-05-19T23:08:46.882Z,14.45
2023-05-19T23:13:48.366Z,14.63
2023-05-19T23:18:49.938Z,14.70
2023-05-19T23:23:51.555Z,14.63
2023-05-19T23:28:53.073Z,14.73
2023-05-19T23:33:54.587Z,14.70
2023-05-19T23:38:56.130Z,14.77
2023-05-19T23:43:57.711Z,14.65
2023-05-19T23:48:59.249Z,14.62
2023-05-19T23:54:00.847Z,14.73
2023-05-19T23:59:02.366Z,14.56
